DLH4YF EDDF-LIMC
Flight info
| Callsign | DLH4YF |
|---|---|
| Flight time | 1h 1m |
| Altitude | 33000 |
| Route | ANEKI2L/18 ANEKI Y163 NATOR DCT DITON DCT BASGO Z424 RIXUV |
| Aircraft | A321/M-SDE3FGHIRWY/LB1 |
Departure
| Time | 2026-05-04 20:01 |
|---|---|
| Airport | Frankfurt Main Airport (EDDF) |
Arrival
| Time | 2026-05-04 21:03 |
|---|---|
| Airport | Milan Malpensa International Airport (LIMC) |
| Time | Latitude | Longitude | Altitude | Speed | Heading |
|---|---|---|---|---|---|
| 2026-05-04 19:29 | 50.04418 | 8.56275 | 358 ft | 0 kts | 162° |
| 2026-05-04 19:49 | 50.04431 | 8.56268 | 363 ft | 4 kts | 161° |
| 2026-05-04 19:49 | 50.04457 | 8.56255 | 360 ft | 4 kts | 166° |
| 2026-05-04 19:49 | 50.04478 | 8.56250 | 360 ft | 4 kts | 197° |
| 2026-05-04 19:50 | 50.04492 | 8.56272 | 362 ft | 4 kts | 257° |
| 2026-05-04 19:50 | 50.04499 | 8.56310 | 363 ft | 4 kts | 249° |
| 2026-05-04 19:50 | 50.04508 | 8.56349 | 362 ft | 4 kts | 250° |
| 2026-05-04 19:50 | 50.04515 | 8.56379 | 360 ft | 0 kts | 250° |
| 2026-05-04 19:55 | 50.04514 | 8.56375 | 356 ft | 1 kts | 250° |
| 2026-05-04 19:55 | 50.04506 | 8.56341 | 361 ft | 8 kts | 249° |
| 2026-05-04 19:55 | 50.04481 | 8.56240 | 363 ft | 11 kts | 249° |
| 2026-05-04 19:56 | 50.04452 | 8.56116 | 362 ft | 13 kts | 250° |
| 2026-05-04 19:56 | 50.04385 | 8.56034 | 356 ft | 14 kts | 171° |
| 2026-05-04 19:56 | 50.04284 | 8.56063 | 360 ft | 16 kts | 203° |
| 2026-05-04 19:56 | 50.04230 | 8.55904 | 355 ft | 18 kts | 249° |
| 2026-05-04 19:57 | 50.04183 | 8.55706 | 352 ft | 21 kts | 249° |
| 2026-05-04 19:57 | 50.04131 | 8.55490 | 354 ft | 22 kts | 250° |
| 2026-05-04 19:57 | 50.04077 | 8.55261 | 359 ft | 23 kts | 249° |
| 2026-05-04 19:57 | 50.04020 | 8.55025 | 359 ft | 24 kts | 250° |
| 2026-05-04 19:58 | 50.03960 | 8.54773 | 358 ft | 21 kts | 249° |
| 2026-05-04 19:58 | 50.03906 | 8.54548 | 356 ft | 23 kts | 250° |
| 2026-05-04 19:58 | 50.03833 | 8.54311 | 354 ft | 23 kts | 235° |
| 2026-05-04 19:58 | 50.03765 | 8.54078 | 354 ft | 25 kts | 249° |
| 2026-05-04 19:59 | 50.03703 | 8.53820 | 348 ft | 26 kts | 249° |
| 2026-05-04 19:59 | 50.03642 | 8.53574 | 346 ft | 22 kts | 248° |
| 2026-05-04 19:59 | 50.03585 | 8.53339 | 335 ft | 24 kts | 249° |
| 2026-05-04 19:59 | 50.03525 | 8.53088 | 335 ft | 26 kts | 249° |
| 2026-05-04 20:00 | 50.03461 | 8.52833 | 333 ft | 24 kts | 247° |
| 2026-05-04 20:00 | 50.03401 | 8.52622 | 332 ft | 19 kts | 233° |
| 2026-05-04 20:00 | 50.03313 | 8.52594 | 334 ft | 14 kts | 180° |
| 2026-05-04 20:00 | 50.03042 | 8.52595 | 336 ft | 78 kts | 179° |
| 2026-05-04 20:01 | 50.02236 | 8.52606 | 335 ft | 150 kts | 179° |
| 2026-05-04 20:01 | 50.01083 | 8.52624 | 791 ft | 168 kts | 180° |
| 2026-05-04 20:01 | 49.99912 | 8.52676 | 1599 ft | 169 kts | 178° |
| 2026-05-04 20:01 | 49.98697 | 8.52752 | 2087 ft | 184 kts | 178° |
| 2026-05-04 20:02 | 49.97335 | 8.52844 | 2442 ft | 208 kts | 178° |
| 2026-05-04 20:02 | 49.95811 | 8.52948 | 2899 ft | 227 kts | 178° |
| 2026-05-04 20:02 | 49.94234 | 8.53054 | 3653 ft | 233 kts | 178° |
| 2026-05-04 20:02 | 49.92620 | 8.53162 | 4463 ft | 232 kts | 178° |
| 2026-05-04 20:03 | 49.91008 | 8.53273 | 5363 ft | 232 kts | 178° |
| 2026-05-04 20:03 | 49.89398 | 8.53384 | 6281 ft | 232 kts | 178° |
| 2026-05-04 20:03 | 49.87785 | 8.53494 | 7136 ft | 232 kts | 179° |
| 2026-05-04 20:03 | 49.86168 | 8.53603 | 7996 ft | 234 kts | 179° |
| 2026-05-04 20:04 | 49.84537 | 8.53715 | 8813 ft | 236 kts | 179° |
| 2026-05-04 20:04 | 49.82887 | 8.53826 | 9634 ft | 239 kts | 179° |
| 2026-05-04 20:04 | 49.81219 | 8.53937 | 10390 ft | 242 kts | 179° |
| 2026-05-04 20:04 | 49.79552 | 8.54049 | 11117 ft | 244 kts | 179° |
| 2026-05-04 20:05 | 49.77844 | 8.54110 | 11826 ft | 248 kts | 185° |
| 2026-05-04 20:05 | 49.76052 | 8.53892 | 12133 ft | 270 kts | 186° |
| 2026-05-04 20:05 | 49.74101 | 8.53630 | 12358 ft | 293 kts | 186° |
| 2026-05-04 20:05 | 49.71994 | 8.53341 | 12543 ft | 316 kts | 186° |
| 2026-05-04 20:06 | 49.69753 | 8.53035 | 12939 ft | 328 kts | 186° |
| 2026-05-04 20:06 | 49.67461 | 8.52729 | 13587 ft | 333 kts | 186° |
| 2026-05-04 20:06 | 49.65138 | 8.52421 | 14210 ft | 337 kts | 186° |
| 2026-05-04 20:06 | 49.62784 | 8.52111 | 14797 ft | 341 kts | 186° |
| 2026-05-04 20:07 | 49.60404 | 8.51799 | 15419 ft | 345 kts | 186° |
| 2026-05-04 20:07 | 49.58003 | 8.51483 | 16052 ft | 348 kts | 186° |
| 2026-05-04 20:07 | 49.55581 | 8.51164 | 16681 ft | 351 kts | 186° |
| 2026-05-04 20:07 | 49.53138 | 8.50844 | 17298 ft | 354 kts | 186° |
| 2026-05-04 20:08 | 49.50673 | 8.50519 | 17917 ft | 357 kts | 186° |
| 2026-05-04 20:08 | 49.48188 | 8.50192 | 18470 ft | 360 kts | 186° |
| 2026-05-04 20:08 | 49.45715 | 8.49867 | 18990 ft | 363 kts | 186° |
| 2026-05-04 20:08 | 49.43190 | 8.49539 | 19529 ft | 365 kts | 185° |
| 2026-05-04 20:09 | 49.40656 | 8.49208 | 20057 ft | 367 kts | 186° |
| 2026-05-04 20:09 | 49.38101 | 8.48870 | 20590 ft | 370 kts | 186° |
| 2026-05-04 20:09 | 49.35529 | 8.48531 | 21111 ft | 372 kts | 186° |
| 2026-05-04 20:09 | 49.32946 | 8.48193 | 21620 ft | 374 kts | 186° |
| 2026-05-04 20:10 | 49.30347 | 8.47856 | 22129 ft | 376 kts | 186° |
| 2026-05-04 20:10 | 49.27734 | 8.47520 | 22632 ft | 378 kts | 186° |
| 2026-05-04 20:10 | 49.25101 | 8.47183 | 23122 ft | 381 kts | 186° |
| 2026-05-04 20:10 | 49.22490 | 8.46848 | 23596 ft | 383 kts | 186° |
| 2026-05-04 20:11 | 49.19827 | 8.46505 | 23958 ft | 386 kts | 186° |
| 2026-05-04 20:11 | 49.17138 | 8.46159 | 24344 ft | 389 kts | 186° |
| 2026-05-04 20:11 | 49.14438 | 8.45810 | 24766 ft | 390 kts | 186° |
| 2026-05-04 20:11 | 49.11729 | 8.45455 | 25202 ft | 392 kts | 187° |
| 2026-05-04 20:12 | 49.09006 | 8.45099 | 25635 ft | 393 kts | 186° |
| 2026-05-04 20:12 | 49.06285 | 8.44681 | 26058 ft | 394 kts | 191° |
| 2026-05-04 20:12 | 49.03607 | 8.43805 | 26476 ft | 394 kts | 194° |
| 2026-05-04 20:12 | 49.00930 | 8.42868 | 26894 ft | 396 kts | 194° |
| 2026-05-04 20:13 | 48.98241 | 8.41927 | 27301 ft | 397 kts | 194° |
| 2026-05-04 20:13 | 48.95577 | 8.40995 | 27702 ft | 399 kts | 194° |
| 2026-05-04 20:13 | 48.92867 | 8.40052 | 28108 ft | 400 kts | 194° |
| 2026-05-04 20:13 | 48.90146 | 8.39109 | 28514 ft | 402 kts | 194° |
| 2026-05-04 20:14 | 48.87419 | 8.38163 | 28914 ft | 403 kts | 194° |
| 2026-05-04 20:14 | 48.84679 | 8.37215 | 29314 ft | 405 kts | 194° |
| 2026-05-04 20:14 | 48.81926 | 8.36263 | 29716 ft | 406 kts | 193° |
| 2026-05-04 20:14 | 48.79167 | 8.35309 | 30097 ft | 408 kts | 194° |
| 2026-05-04 20:15 | 48.76395 | 8.34333 | 30404 ft | 409 kts | 194° |
| 2026-05-04 20:15 | 48.73620 | 8.33325 | 30704 ft | 411 kts | 194° |
| 2026-05-04 20:15 | 48.70837 | 8.32297 | 30982 ft | 413 kts | 194° |
| 2026-05-04 20:15 | 48.68073 | 8.31275 | 31229 ft | 415 kts | 195° |
| 2026-05-04 20:16 | 48.65261 | 8.30237 | 31492 ft | 417 kts | 195° |
| 2026-05-04 20:16 | 48.62443 | 8.29205 | 31826 ft | 416 kts | 195° |
| 2026-05-04 20:16 | 48.59633 | 8.28183 | 32203 ft | 415 kts | 195° |
| 2026-05-04 20:16 | 48.56825 | 8.27169 | 32543 ft | 415 kts | 195° |
| 2026-05-04 20:17 | 48.54024 | 8.26157 | 32878 ft | 414 kts | 195° |
| 2026-05-04 20:17 | 48.51213 | 8.25212 | 32991 ft | 409 kts | 191° |
| 2026-05-04 20:17 | 48.48421 | 8.24862 | 33006 ft | 400 kts | 182° |
| 2026-05-04 20:18 | 48.42956 | 8.25854 | 33006 ft | 398 kts | 174° |
| 2026-05-04 20:18 | 48.37484 | 8.27169 | 33003 ft | 398 kts | 174° |
| 2026-05-04 20:19 | 48.32016 | 8.28501 | 33007 ft | 399 kts | 174° |
| 2026-05-04 20:19 | 48.26531 | 8.29829 | 33008 ft | 399 kts | 174° |
| 2026-05-04 20:20 | 48.21045 | 8.31156 | 33009 ft | 399 kts | 174° |
| 2026-05-04 20:20 | 48.15546 | 8.32170 | 33015 ft | 396 kts | 182° |
| 2026-05-04 20:21 | 48.10070 | 8.32242 | 33016 ft | 396 kts | 182° |
| 2026-05-04 20:21 | 48.01789 | 8.32336 | 33026 ft | 397 kts | 182° |
| 2026-05-04 20:22 | 47.96266 | 8.32415 | 33024 ft | 397 kts | 182° |
| 2026-05-04 20:22 | 47.90745 | 8.32494 | 33016 ft | 397 kts | 182° |
| 2026-05-04 20:23 | 47.85259 | 8.32567 | 33018 ft | 397 kts | 182° |
| 2026-05-04 20:23 | 47.79734 | 8.32647 | 33020 ft | 397 kts | 182° |
| 2026-05-04 20:24 | 47.74210 | 8.32730 | 33023 ft | 397 kts | 182° |
| 2026-05-04 20:24 | 47.68685 | 8.32813 | 33020 ft | 397 kts | 182° |
| 2026-05-04 20:25 | 47.63162 | 8.32888 | 33020 ft | 397 kts | 182° |
| 2026-05-04 20:25 | 47.57679 | 8.32955 | 33023 ft | 397 kts | 182° |
| 2026-05-04 20:26 | 47.52161 | 8.33030 | 33022 ft | 397 kts | 182° |
| 2026-05-04 20:26 | 47.46646 | 8.33114 | 33009 ft | 397 kts | 182° |
| 2026-05-04 20:27 | 47.41129 | 8.33184 | 33004 ft | 397 kts | 183° |
| 2026-05-04 20:27 | 47.35636 | 8.33251 | 32989 ft | 398 kts | 183° |
| 2026-05-04 20:28 | 47.30093 | 8.33334 | 32999 ft | 399 kts | 182° |
| 2026-05-04 20:28 | 47.27314 | 8.33530 | 32809 ft | 401 kts | 180° |
| 2026-05-04 20:28 | 47.24535 | 8.33883 | 32460 ft | 400 kts | 178° |
| 2026-05-04 20:29 | 47.21778 | 8.34322 | 32089 ft | 397 kts | 177° |
| 2026-05-04 20:29 | 47.19040 | 8.34780 | 31736 ft | 394 kts | 177° |
| 2026-05-04 20:29 | 47.16324 | 8.35220 | 31378 ft | 391 kts | 177° |
| 2026-05-04 20:29 | 47.13625 | 8.35630 | 31024 ft | 388 kts | 178° |
| 2026-05-04 20:30 | 47.10981 | 8.36002 | 30690 ft | 385 kts | 178° |
| 2026-05-04 20:30 | 47.08320 | 8.36362 | 30342 ft | 383 kts | 178° |
| 2026-05-04 20:30 | 47.05676 | 8.36715 | 29976 ft | 381 kts | 178° |
| 2026-05-04 20:30 | 47.03043 | 8.37067 | 29578 ft | 379 kts | 178° |
| 2026-05-04 20:31 | 47.00423 | 8.37416 | 29189 ft | 377 kts | 178° |
| 2026-05-04 20:31 | 46.97821 | 8.37766 | 28799 ft | 375 kts | 177° |
| 2026-05-04 20:31 | 46.95229 | 8.38119 | 28418 ft | 373 kts | 177° |
| 2026-05-04 20:31 | 46.92655 | 8.38470 | 28037 ft | 370 kts | 177° |
| 2026-05-04 20:32 | 46.90128 | 8.38814 | 27711 ft | 369 kts | 177° |
| 2026-05-04 20:32 | 46.87545 | 8.39161 | 27391 ft | 367 kts | 177° |
| 2026-05-04 20:32 | 46.85036 | 8.39499 | 27076 ft | 366 kts | 177° |
| 2026-05-04 20:32 | 46.82501 | 8.39842 | 26769 ft | 365 kts | 177° |
| 2026-05-04 20:33 | 46.79979 | 8.40181 | 26453 ft | 363 kts | 178° |
| 2026-05-04 20:33 | 46.77469 | 8.40519 | 26163 ft | 362 kts | 177° |
| 2026-05-04 20:33 | 46.74963 | 8.40860 | 25865 ft | 361 kts | 177° |
| 2026-05-04 20:33 | 46.72470 | 8.41198 | 25578 ft | 359 kts | 177° |
| 2026-05-04 20:34 | 46.69990 | 8.41533 | 25285 ft | 357 kts | 177° |
| 2026-05-04 20:34 | 46.67521 | 8.41867 | 24996 ft | 356 kts | 177° |
| 2026-05-04 20:34 | 46.65093 | 8.42194 | 24711 ft | 354 kts | 177° |
| 2026-05-04 20:34 | 46.62640 | 8.42521 | 24431 ft | 353 kts | 177° |
| 2026-05-04 20:35 | 46.60204 | 8.42843 | 24158 ft | 351 kts | 177° |
| 2026-05-04 20:35 | 46.57776 | 8.43162 | 23885 ft | 350 kts | 177° |
| 2026-05-04 20:35 | 46.55359 | 8.43484 | 23607 ft | 348 kts | 177° |
| 2026-05-04 20:35 | 46.52946 | 8.43807 | 23289 ft | 347 kts | 177° |
| 2026-05-04 20:36 | 46.50543 | 8.44128 | 22962 ft | 346 kts | 177° |
| 2026-05-04 20:36 | 46.48146 | 8.44449 | 22656 ft | 345 kts | 177° |
| 2026-05-04 20:36 | 46.45762 | 8.44766 | 22336 ft | 344 kts | 177° |
| 2026-05-04 20:36 | 46.43415 | 8.45080 | 22023 ft | 343 kts | 177° |
| 2026-05-04 20:37 | 46.41043 | 8.45398 | 21731 ft | 342 kts | 177° |
| 2026-05-04 20:37 | 46.38676 | 8.45713 | 21401 ft | 341 kts | 177° |
| 2026-05-04 20:37 | 46.36318 | 8.46026 | 21093 ft | 339 kts | 178° |
| 2026-05-04 20:37 | 46.33971 | 8.46337 | 20789 ft | 338 kts | 178° |
| 2026-05-04 20:38 | 46.31627 | 8.46650 | 20497 ft | 338 kts | 178° |
| 2026-05-04 20:38 | 46.29294 | 8.46961 | 20194 ft | 336 kts | 178° |
| 2026-05-04 20:38 | 46.26970 | 8.47269 | 19902 ft | 335 kts | 178° |
| 2026-05-04 20:38 | 46.24650 | 8.47587 | 19615 ft | 335 kts | 177° |
| 2026-05-04 20:39 | 46.22364 | 8.47915 | 19330 ft | 335 kts | 177° |
| 2026-05-04 20:39 | 46.20047 | 8.48252 | 19029 ft | 334 kts | 176° |
| 2026-05-04 20:39 | 46.17732 | 8.48588 | 18750 ft | 334 kts | 177° |
| 2026-05-04 20:39 | 46.15425 | 8.48919 | 18477 ft | 332 kts | 177° |
| 2026-05-04 20:40 | 46.13127 | 8.49247 | 18220 ft | 332 kts | 177° |
| 2026-05-04 20:40 | 46.10848 | 8.49741 | 17954 ft | 333 kts | 168° |
| 2026-05-04 20:40 | 46.08657 | 8.50804 | 17685 ft | 332 kts | 162° |
| 2026-05-04 20:40 | 46.06499 | 8.51981 | 17410 ft | 330 kts | 162° |
| 2026-05-04 20:41 | 46.04381 | 8.53125 | 17166 ft | 329 kts | 162° |
| 2026-05-04 20:41 | 46.02238 | 8.54277 | 16902 ft | 328 kts | 162° |
| 2026-05-04 20:41 | 46.00099 | 8.55423 | 16646 ft | 327 kts | 162° |
| 2026-05-04 20:41 | 45.97971 | 8.56562 | 16390 ft | 326 kts | 162° |
| 2026-05-04 20:42 | 45.95856 | 8.57695 | 16134 ft | 324 kts | 162° |
| 2026-05-04 20:42 | 45.93750 | 8.58824 | 15878 ft | 322 kts | 162° |
| 2026-05-04 20:42 | 45.91660 | 8.59945 | 15626 ft | 317 kts | 162° |
| 2026-05-04 20:42 | 45.89683 | 8.61239 | 15381 ft | 310 kts | 152° |
| 2026-05-04 20:43 | 45.87946 | 8.63061 | 15134 ft | 309 kts | 144° |
| 2026-05-04 20:43 | 45.86283 | 8.65002 | 14899 ft | 307 kts | 144° |
| 2026-05-04 20:43 | 45.84648 | 8.66902 | 14657 ft | 306 kts | 144° |
| 2026-05-04 20:43 | 45.82997 | 8.68815 | 14403 ft | 305 kts | 144° |
| 2026-05-04 20:44 | 45.81348 | 8.70720 | 14163 ft | 304 kts | 145° |
| 2026-05-04 20:44 | 45.79705 | 8.72619 | 13927 ft | 303 kts | 145° |
| 2026-05-04 20:44 | 45.78066 | 8.74512 | 13664 ft | 302 kts | 145° |
| 2026-05-04 20:44 | 45.76420 | 8.76346 | 13395 ft | 298 kts | 150° |
| 2026-05-04 20:45 | 45.74631 | 8.77792 | 13128 ft | 294 kts | 155° |
| 2026-05-04 20:45 | 45.72837 | 8.79169 | 12866 ft | 292 kts | 155° |
| 2026-05-04 20:45 | 45.71054 | 8.80541 | 12612 ft | 290 kts | 155° |
| 2026-05-04 20:45 | 45.69307 | 8.81887 | 12352 ft | 288 kts | 155° |
| 2026-05-04 20:46 | 45.67550 | 8.83238 | 12093 ft | 286 kts | 154° |
| 2026-05-04 20:46 | 45.65797 | 8.84585 | 11720 ft | 284 kts | 154° |
| 2026-05-04 20:46 | 45.64100 | 8.85891 | 11593 ft | 271 kts | 154° |
| 2026-05-04 20:46 | 45.62465 | 8.87146 | 11363 ft | 263 kts | 156° |
| 2026-05-04 20:47 | 45.60760 | 8.87983 | 11052 ft | 257 kts | 171° |
| 2026-05-04 20:47 | 45.59007 | 8.88452 | 10692 ft | 255 kts | 171° |
| 2026-05-04 20:47 | 45.57272 | 8.88921 | 10356 ft | 253 kts | 170° |
| 2026-05-04 20:47 | 45.55572 | 8.89382 | 10063 ft | 250 kts | 170° |
| 2026-05-04 20:48 | 45.53866 | 8.89847 | 9699 ft | 249 kts | 170° |
| 2026-05-04 20:48 | 45.52178 | 8.90303 | 9394 ft | 246 kts | 170° |
| 2026-05-04 20:48 | 45.50500 | 8.90754 | 9098 ft | 245 kts | 170° |
| 2026-05-04 20:48 | 45.48841 | 8.91203 | 8861 ft | 240 kts | 170° |
| 2026-05-04 20:49 | 45.47210 | 8.91645 | 8536 ft | 238 kts | 170° |
| 2026-05-04 20:49 | 45.45577 | 8.92088 | 8153 ft | 239 kts | 169° |
| 2026-05-04 20:49 | 45.43940 | 8.92534 | 7780 ft | 240 kts | 169° |
| 2026-05-04 20:49 | 45.42301 | 8.92978 | 7395 ft | 239 kts | 169° |
| 2026-05-04 20:50 | 45.40691 | 8.93414 | 6904 ft | 239 kts | 169° |
| 2026-05-04 20:50 | 45.39061 | 8.93856 | 6389 ft | 239 kts | 169° |
| 2026-05-04 20:50 | 45.37435 | 8.94297 | 5966 ft | 236 kts | 169° |
| 2026-05-04 20:50 | 45.35825 | 8.94734 | 5923 ft | 237 kts | 169° |
| 2026-05-04 20:51 | 45.34203 | 8.95172 | 5871 ft | 238 kts | 169° |
| 2026-05-04 20:51 | 45.32575 | 8.95613 | 5687 ft | 238 kts | 169° |
| 2026-05-04 20:51 | 45.30973 | 8.96049 | 5446 ft | 229 kts | 169° |
| 2026-05-04 20:51 | 45.29424 | 8.96471 | 5229 ft | 226 kts | 169° |
| 2026-05-04 20:52 | 45.27899 | 8.96884 | 5017 ft | 226 kts | 169° |
| 2026-05-04 20:52 | 45.26351 | 8.97306 | 4784 ft | 226 kts | 170° |
| 2026-05-04 20:52 | 45.24811 | 8.97727 | 4532 ft | 225 kts | 170° |
| 2026-05-04 20:52 | 45.23266 | 8.97974 | 4271 ft | 222 kts | 187° |
| 2026-05-04 20:53 | 45.21829 | 8.97301 | 4081 ft | 218 kts | 214° |
| 2026-05-04 20:53 | 45.20795 | 8.95764 | 4024 ft | 217 kts | 242° |
| 2026-05-04 20:53 | 45.20379 | 8.93721 | 4050 ft | 219 kts | 267° |
| 2026-05-04 20:53 | 45.20415 | 8.91559 | 4036 ft | 219 kts | 271° |
| 2026-05-04 20:54 | 45.20468 | 8.89397 | 4032 ft | 220 kts | 271° |
| 2026-05-04 20:54 | 45.20602 | 8.87266 | 4024 ft | 222 kts | 283° |
| 2026-05-04 20:54 | 45.21320 | 8.85319 | 4028 ft | 227 kts | 310° |
| 2026-05-04 20:54 | 45.22600 | 8.84007 | 4027 ft | 230 kts | 337° |
| 2026-05-04 20:55 | 45.24157 | 8.83474 | 4006 ft | 230 kts | 348° |
| 2026-05-04 20:55 | 45.25738 | 8.83220 | 4009 ft | 229 kts | 359° |
| 2026-05-04 20:55 | 45.27325 | 8.83090 | 4004 ft | 228 kts | 352° |
| 2026-05-04 20:55 | 45.28865 | 8.82730 | 4003 ft | 220 kts | 348° |
| 2026-05-04 20:56 | 45.30348 | 8.82324 | 4004 ft | 214 kts | 348° |
| 2026-05-04 20:56 | 45.31823 | 8.81918 | 4013 ft | 217 kts | 348° |
| 2026-05-04 20:56 | 45.33260 | 8.81525 | 4008 ft | 209 kts | 348° |
| 2026-05-04 20:56 | 45.34684 | 8.81136 | 4010 ft | 207 kts | 348° |
| 2026-05-04 20:57 | 45.36099 | 8.80748 | 4007 ft | 207 kts | 348° |
| 2026-05-04 20:57 | 45.37514 | 8.80361 | 4007 ft | 207 kts | 348° |
| 2026-05-04 20:57 | 45.38889 | 8.79985 | 4014 ft | 197 kts | 348° |
| 2026-05-04 20:57 | 45.40230 | 8.79618 | 4011 ft | 196 kts | 348° |
| 2026-05-04 20:58 | 45.41570 | 8.79251 | 4005 ft | 196 kts | 348° |
| 2026-05-04 20:58 | 45.42908 | 8.78884 | 4010 ft | 196 kts | 348° |
| 2026-05-04 20:58 | 45.44231 | 8.78522 | 4000 ft | 188 kts | 348° |
| 2026-05-04 20:58 | 45.45492 | 8.78176 | 3861 ft | 182 kts | 348° |
| 2026-05-04 20:59 | 45.46713 | 8.77841 | 3652 ft | 180 kts | 348° |
| 2026-05-04 20:59 | 45.47941 | 8.77503 | 3430 ft | 179 kts | 348° |
| 2026-05-04 20:59 | 45.49163 | 8.77168 | 3196 ft | 178 kts | 348° |
| 2026-05-04 20:59 | 45.50376 | 8.76834 | 2948 ft | 177 kts | 348° |
| 2026-05-04 21:00 | 45.51582 | 8.76503 | 2724 ft | 176 kts | 348° |
| 2026-05-04 21:00 | 45.52749 | 8.76182 | 2503 ft | 162 kts | 349° |
| 2026-05-04 21:00 | 45.53814 | 8.75889 | 2280 ft | 151 kts | 349° |
| 2026-05-04 21:00 | 45.54828 | 8.75610 | 2079 ft | 146 kts | 349° |
| 2026-05-04 21:01 | 45.55794 | 8.75344 | 1892 ft | 139 kts | 349° |
| 2026-05-04 21:01 | 45.56722 | 8.75088 | 1711 ft | 137 kts | 349° |
| 2026-05-04 21:01 | 45.57656 | 8.74831 | 1526 ft | 137 kts | 348° |
| 2026-05-04 21:01 | 45.58598 | 8.74571 | 1357 ft | 138 kts | 348° |
| 2026-05-04 21:02 | 45.59548 | 8.74309 | 1161 ft | 140 kts | 347° |
| 2026-05-04 21:02 | 45.60507 | 8.74044 | 966 ft | 140 kts | 347° |
| 2026-05-04 21:02 | 45.61463 | 8.73778 | 808 ft | 140 kts | 347° |
| 2026-05-04 21:02 | 45.62384 | 8.73525 | 743 ft | 122 kts | 348° |
| 2026-05-04 21:03 | 45.63047 | 8.73340 | 737 ft | 72 kts | 349° |
| 2026-05-04 21:03 | 45.63387 | 8.73248 | 739 ft | 38 kts | 349° |
| 2026-05-04 21:03 | 45.63614 | 8.73162 | 741 ft | 32 kts | 335° |
| 2026-05-04 21:03 | 45.63790 | 8.72967 | 741 ft | 26 kts | 307° |
| 2026-05-04 21:04 | 45.63883 | 8.72768 | 741 ft | 25 kts | 304° |
| 2026-05-04 21:04 | 45.63953 | 8.72568 | 740 ft | 23 kts | 271° |
| 2026-05-04 21:04 | 45.63930 | 8.72367 | 741 ft | 19 kts | 259° |
| 2026-05-04 21:04 | 45.63915 | 8.72168 | 740 ft | 21 kts | 266° |
| 2026-05-04 21:05 | 45.63903 | 8.71947 | 741 ft | 22 kts | 260° |
| 2026-05-04 21:05 | 45.63800 | 8.71828 | 741 ft | 22 kts | 174° |
| 2026-05-04 21:05 | 45.63645 | 8.71868 | 741 ft | 18 kts | 169° |
| 2026-05-04 21:05 | 45.63512 | 8.71905 | 740 ft | 21 kts | 169° |
| 2026-05-04 21:06 | 45.63364 | 8.71945 | 741 ft | 23 kts | 169° |
| 2026-05-04 21:06 | 45.63202 | 8.71989 | 741 ft | 25 kts | 168° |
| 2026-05-04 21:06 | 45.63043 | 8.72033 | 741 ft | 22 kts | 169° |
| 2026-05-04 21:06 | 45.62889 | 8.72076 | 741 ft | 24 kts | 169° |
| 2026-05-04 21:07 | 45.62744 | 8.72116 | 741 ft | 18 kts | 171° |
| 2026-05-04 21:07 | 45.62672 | 8.72005 | 741 ft | 14 kts | 259° |
| 2026-05-04 21:07 | 45.62655 | 8.71872 | 740 ft | 11 kts | 254° |
| 2026-05-04 21:07 | 45.62586 | 8.71848 | 741 ft | 12 kts | 168° |
| 2026-05-04 21:08 | 45.62517 | 8.71839 | 740 ft | 8 kts | 234° |
| 2026-05-04 21:08 | 45.62509 | 8.71781 | 741 ft | 5 kts | 260° |
| 2026-05-04 21:08 | 45.62506 | 8.71757 | 741 ft | 0 kts | 259° |